Time;durP1;ratioP1;P1;durP2;ratioP2;P2;SDS_P1;SDS_P2;PMS_P1;PMS_P2;Temp;Humidity;BMP_temperature;BMP_pressure;BME280_temperature;BME280_humidity;BME280_pressure;Samples;Min_cycle;Max_cycle;Signal;HPM_P1;HPM_P2
2020/12/21 00:01:32;;;;;;;39.13;23.60;;;;;;;;;;4376653;32;20322;-59
2020/12/21 00:03:57;;;;;;;37.80;23.73;;;;;;;;;;4380986;32;20268;-59
2020/12/21 00:06:22;;;;;;;35.93;22.93;;;;;;;;;;4379668;32;20302;-59
2020/12/21 00:08:48;;;;;;;28.33;19.80;;;;;;;;;;4377755;32;20357;-59
2020/12/21 00:11:13;;;;;;;32.50;20.73;;;;;;;;;;4379698;32;20624;-57
2020/12/21 00:13:45;;;;;;;35.10;22.47;;;;;;;;;;4379771;32;20248;-56
2020/12/21 00:16:11;;;;;;;43.57;22.97;;;;;;;;;;4382500;32;20225;-57
2020/12/21 00:18:37;;;;;;;40.10;25.37;;;;;;;;;;4381125;32;20300;-57
2020/12/21 00:21:04;;;;;;;42.20;24.47;;;;;;;;;;4382260;32;20261;-57
2020/12/21 00:23:30;;;;;;;48.53;27.00;;;;;;;;;;4381651;32;20190;-57
2020/12/21 00:25:55;;;;;;;53.03;29.33;;;;;;;;;;4380385;32;20217;-57
2020/12/21 00:28:21;;;;;;;47.23;27.00;;;;;;;;;;4379916;32;20364;-60
2020/12/21 00:30:46;;;;;;;49.73;27.77;;;;;;;;;;4382100;32;20205;-57
2020/12/21 00:33:12;;;;;;;50.13;27.67;;;;;;;;;;4382539;32;20306;-58
2020/12/21 00:35:40;;;;;;;47.67;27.53;;;;;;;;;;4384926;32;20282;-57
2020/12/21 00:38:06;;;;;;;43.63;26.13;;;;;;;;;;4380143;32;20214;-58
2020/12/21 00:40:31;;;;;;;58.70;32.23;;;;;;;;;;4383195;32;20935;-58
2020/12/21 00:42:56;;;;;;;49.87;29.97;;;;;;;;;;4381630;32;20288;-58
2020/12/21 00:45:22;;;;;;;48.60;30.40;;;;;;;;;;4381948;32;20428;-57
2020/12/21 00:47:47;;;;;;;52.30;30.77;;;;;;;;;;4383111;32;20768;-58
2020/12/21 00:50:13;;;;;;;40.87;24.93;;;;;;;;;;4379487;32;20219;-57
2020/12/21 00:52:38;;;;;;;48.57;28.97;;;;;;;;;;4381391;32;20429;-57
2020/12/21 00:55:04;;;;;;;37.93;24.77;;;;;;;;;;4380040;32;20327;-57
2020/12/21 00:57:33;;;;;;;27.70;18.00;;;;;;;;;;4380886;32;20282;-59
2020/12/21 00:59:59;;;;;;;24.20;16.17;;;;;;;;;;4381195;32;20378;-58
2020/12/21 01:02:25;;;;;;;21.90;13.30;;;;;;;;;;4365565;32;20755;-58
2020/12/21 01:04:51;;;;;;;19.30;12.67;;;;;;;;;;4383594;32;20317;-58
2020/12/21 01:07:16;;;;;;;19.07;12.77;;;;;;;;;;4380957;32;20564;-58
2020/12/21 01:09:46;;;;;;;18.77;12.73;;;;;;;;;;4381282;32;20328;-57
2020/12/21 01:12:12;;;;;;;20.83;13.43;;;;;;;;;;4380710;32;20336;-58
2020/12/21 01:14:37;;;;;;;23.00;14.40;;;;;;;;;;4382840;32;20378;-59
2020/12/21 01:17:03;;;;;;;24.10;14.80;;;;;;;;;;4381827;32;20616;-59
2020/12/21 01:19:28;;;;;;;25.30;16.43;;;;;;;;;;4380706;32;20442;-59
2020/12/21 01:21:53;;;;;;;26.60;17.00;;;;;;;;;;4381314;32;20347;-59
2020/12/21 01:24:19;;;;;;;23.03;15.90;;;;;;;;;;4380532;32;20280;-58
2020/12/21 01:26:44;;;;;;;21.63;14.93;;;;;;;;;;4382307;32;20269;-58
2020/12/21 01:29:09;;;;;;;22.07;14.40;;;;;;;;;;4379963;32;21903;-58
2020/12/21 01:31:35;;;;;;;20.53;15.17;;;;;;;;;;4380564;32;20324;-58
2020/12/21 01:34:01;;;;;;;25.47;15.07;;;;;;;;;;4381466;32;20268;-58
2020/12/21 01:36:27;;;;;;;21.63;14.67;;;;;;;;;;4382287;32;20241;-59
2020/12/21 01:38:52;;;;;;;20.97;14.20;;;;;;;;;;4376960;32;20434;-58
2020/12/21 01:41:17;;;;;;;27.53;17.53;;;;;;;;;;4376899;32;20406;-59
2020/12/21 01:43:43;;;;;;;22.37;13.17;;;;;;;;;;4380486;32;20305;-59
2020/12/21 01:46:13;;;;;;;27.23;15.37;;;;;;;;;;4380758;32;20392;-58
2020/12/21 01:48:41;;;;;;;23.00;16.30;;;;;;;;;;4376413;32;20313;-58
2020/12/21 01:51:07;;;;;;;26.97;17.23;;;;;;;;;;4378063;32;20254;-58
2020/12/21 01:53:37;;;;;;;28.80;17.57;;;;;;;;;;4380958;32;20713;-57
2020/12/21 01:56:04;;;;;;;32.03;17.93;;;;;;;;;;4378450;32;20359;-57
2020/12/21 01:58:31;;;;;;;27.03;16.73;;;;;;;;;;4379220;32;20205;-58
2020/12/21 02:01:01;;;;;;;28.40;17.40;;;;;;;;;;4382451;32;20763;-58
2020/12/21 02:03:27;;;;;;;31.90;18.97;;;;;;;;;;4381730;32;20628;-57
2020/12/21 02:05:52;;;;;;;36.60;22.00;;;;;;;;;;4381894;32;20260;-57
2020/12/21 02:08:18;;;;;;;44.27;24.30;;;;;;;;;;4380910;32;20352;-57
2020/12/21 02:10:44;;;;;;;48.47;26.37;;;;;;;;;;4377402;32;20202;-57
2020/12/21 02:13:09;;;;;;;44.07;25.13;;;;;;;;;;4380089;32;20311;-57
2020/12/21 02:15:34;;;;;;;39.67;23.63;;;;;;;;;;4380907;32;20332;-57
2020/12/21 02:18:00;;;;;;;42.67;23.40;;;;;;;;;;4381831;32;20285;-57
2020/12/21 02:20:31;;;;;;;36.70;23.63;;;;;;;;;;4380315;32;20828;-57
2020/12/21 02:22:57;;;;;;;43.43;19.60;;;;;;;;;;4380502;32;20288;-57
2020/12/21 02:25:23;;;;;;;35.13;20.13;;;;;;;;;;4382046;32;20271;-58
2020/12/21 02:27:48;;;;;;;39.03;22.27;;;;;;;;;;4380853;32;20714;-58
2020/12/21 02:30:14;;;;;;;38.60;21.37;;;;;;;;;;4380476;32;20285;-58
2020/12/21 02:32:39;;;;;;;45.10;25.47;;;;;;;;;;4381732;32;20277;-57
2020/12/21 02:35:06;;;;;;;71.00;34.70;;;;;;;;;;4379831;32;20276;-58
2020/12/21 02:37:32;;;;;;;47.27;24.13;;;;;;;;;;4379356;32;20215;-58
2020/12/21 02:39:57;;;;;;;31.63;17.23;;;;;;;;;;4379549;32;20230;-58
2020/12/21 02:42:23;;;;;;;24.17;15.87;;;;;;;;;;4379666;32;20232;-58
2020/12/21 02:44:48;;;;;;;27.73;16.60;;;;;;;;;;4380029;32;20360;-58
2020/12/21 02:47:13;;;;;;;32.83;20.33;;;;;;;;;;4381488;32;20353;-58
2020/12/21 02:49:39;;;;;;;41.57;21.57;;;;;;;;;;4380096;32;20233;-58
2020/12/21 02:52:04;;;;;;;29.53;18.90;;;;;;;;;;4379775;32;20320;-58
2020/12/21 02:54:29;;;;;;;22.53;15.70;;;;;;;;;;4377934;32;20285;-58
2020/12/21 02:56:55;;;;;;;22.53;13.30;;;;;;;;;;4380670;32;20308;-60
2020/12/21 02:59:21;;;;;;;17.43;11.13;;;;;;;;;;4378768;32;20667;-60
2020/12/21 03:01:47;;;;;;;16.87;10.73;;;;;;;;;;4382353;32;20338;-60
2020/12/21 03:04:13;;;;;;;18.60;11.73;;;;;;;;;;4379402;32;20756;-63
2020/12/21 03:06:38;;;;;;;16.67;11.10;;;;;;;;;;4381214;32;20269;-62
2020/12/21 03:09:04;;;;;;;16.30;11.70;;;;;;;;;;4378650;32;20415;-62
2020/12/21 03:11:29;;;;;;;19.03;11.60;;;;;;;;;;4381561;32;20241;-63
2020/12/21 03:13:55;;;;;;;14.07;10.53;;;;;;;;;;4378767;32;20694;-62
2020/12/21 03:16:23;;;;;;;17.27;10.97;;;;;;;;;;4378857;32;20302;-58
2020/12/21 03:18:49;;;;;;;16.70;11.10;;;;;;;;;;4379142;32;20704;-59
2020/12/21 03:21:14;;;;;;;22.00;14.33;;;;;;;;;;4381675;32;20328;-58
2020/12/21 03:23:39;;;;;;;17.80;13.40;;;;;;;;;;4378712;32;20321;-58
2020/12/21 03:26:06;;;;;;;18.50;13.77;;;;;;;;;;4379392;32;20674;-58
2020/12/21 03:28:32;;;;;;;18.67;12.63;;;;;;;;;;4379553;32;20194;-58
2020/12/21 03:30:57;;;;;;;18.20;12.93;;;;;;;;;;4380412;32;20239;-58
2020/12/21 03:33:23;;;;;;;26.37;15.10;;;;;;;;;;4380824;32;20368;-58
2020/12/21 03:35:48;;;;;;;65.70;28.40;;;;;;;;;;4379430;32;20366;-57
2020/12/21 03:38:14;;;;;;;33.80;17.90;;;;;;;;;;4379530;32;20430;-59
2020/12/21 03:40:39;;;;;;;34.23;18.37;;;;;;;;;;4380486;32;20646;-59
2020/12/21 03:43:04;;;;;;;36.17;17.17;;;;;;;;;;4379354;32;20375;-59
2020/12/21 03:45:30;;;;;;;35.53;17.83;;;;;;;;;;4378445;32;20324;-59
2020/12/21 03:47:56;;;;;;;21.40;13.87;;;;;;;;;;4381320;32;20296;-60
2020/12/21 03:50:21;;;;;;;23.93;14.40;;;;;;;;;;4379373;32;20723;-59
2020/12/21 03:52:46;;;;;;;23.73;15.70;;;;;;;;;;4380612;32;20370;-59
2020/12/21 03:55:12;;;;;;;21.83;15.37;;;;;;;;;;4378031;32;20709;-59
2020/12/21 03:57:38;;;;;;;24.07;15.17;;;;;;;;;;4380344;32;20284;-59
2020/12/21 04:00:06;;;;;;;23.93;14.83;;;;;;;;;;4378819;32;20343;-59
2020/12/21 04:02:33;;;;;;;22.43;13.80;;;;;;;;;;4365014;32;20214;-59
2020/12/21 04:05:04;;;;;;;18.77;11.70;;;;;;;;;;4378407;32;20327;-59
2020/12/21 04:07:29;;;;;;;18.73;11.53;;;;;;;;;;4380286;32;20278;-60
2020/12/21 04:09:55;;;;;;;16.00;11.07;;;;;;;;;;4377133;32;20351;-59
2020/12/21 04:12:20;;;;;;;17.57;11.43;;;;;;;;;;4380306;32;20206;-58
2020/12/21 04:14:45;;;;;;;14.83;11.60;;;;;;;;;;4378882;32;20374;-59
2020/12/21 04:17:11;;;;;;;19.87;10.83;;;;;;;;;;4380267;32;20765;-59
2020/12/21 04:19:36;;;;;;;18.00;13.27;;;;;;;;;;4377314;32;20394;-59
2020/12/21 04:22:02;;;;;;;28.50;13.47;;;;;;;;;;4380213;32;20245;-58
2020/12/21 04:24:27;;;;;;;19.87;12.73;;;;;;;;;;4370112;32;20346;-58
2020/12/21 04:26:53;;;;;;;14.20;11.47;;;;;;;;;;4378857;32;20352;-59
2020/12/21 04:29:18;;;;;;;17.93;11.80;;;;;;;;;;4377511;32;20297;-59
2020/12/21 04:31:44;;;;;;;21.40;14.77;;;;;;;;;;4380522;32;20444;-58
2020/12/21 04:34:09;;;;;;;25.87;16.23;;;;;;;;;;4379086;32;20300;-58
2020/12/21 04:36:34;;;;;;;18.10;12.33;;;;;;;;;;4380274;32;20319;-59
2020/12/21 04:39:00;;;;;;;18.23;13.27;;;;;;;;;;4378046;32;20801;-59
2020/12/21 04:41:25;;;;;;;17.80;13.97;;;;;;;;;;4378712;32;20250;-58
2020/12/21 04:43:53;;;;;;;23.33;15.50;;;;;;;;;;4378949;32;20772;-59
2020/12/21 04:46:18;;;;;;;24.83;16.83;;;;;;;;;;4379125;32;20637;-59
2020/12/21 04:48:45;;;;;;;22.77;16.67;;;;;;;;;;4378582;32;20406;-59
2020/12/21 04:51:11;;;;;;;28.43;18.93;;;;;;;;;;4379481;32;20225;-59
2020/12/21 04:53:39;;;;;;;33.23;21.00;;;;;;;;;;4377917;32;20434;-59
2020/12/21 04:56:05;;;;;;;27.70;19.53;;;;;;;;;;4378971;32;20598;-58
2020/12/21 04:58:30;;;;;;;24.87;17.97;;;;;;;;;;4376806;32;20548;-58
2020/12/21 05:00:56;;;;;;;24.03;17.23;;;;;;;;;;4378298;32;20301;-59
2020/12/21 05:03:21;;;;;;;21.73;15.77;;;;;;;;;;4381310;32;20696;-59
2020/12/21 05:05:47;;;;;;;19.50;14.43;;;;;;;;;;4381167;32;20240;-59
2020/12/21 05:08:15;;;;;;;26.40;17.60;;;;;;;;;;4381810;32;20695;-59
2020/12/21 05:10:45;;;;;;;25.53;18.00;;;;;;;;;;4380106;32;20260;-59
2020/12/21 05:13:13;;;;;;;33.10;21.07;;;;;;;;;;4380212;32;20252;-59
2020/12/21 05:15:38;;;;;;;28.93;19.70;;;;;;;;;;4380189;32;20293;-59
2020/12/21 05:18:09;;;;;;;22.30;15.57;;;;;;;;;;4371787;32;20273;-59
2020/12/21 05:20:36;;;;;;;21.83;15.63;;;;;;;;;;4379978;32;20649;-59
2020/12/21 05:23:13;;;;;;;20.03;14.30;;;;;;;;;;4382515;32;20646;-59
2020/12/21 05:25:38;;;;;;;27.00;15.60;;;;;;;;;;4379908;32;20788;-60
2020/12/21 05:28:11;;;;;;;20.83;15.47;;;;;;;;;;4381999;32;20355;-59
2020/12/21 05:30:50;;;;;;;31.60;18.10;;;;;;;;;;4381593;32;20296;-58
2020/12/21 05:33:15;;;;;;;23.30;16.57;;;;;;;;;;4378862;32;20546;-58
2020/12/21 05:35:40;;;;;;;22.70;16.70;;;;;;;;;;4378266;32;20325;-58
2020/12/21 05:38:06;;;;;;;23.47;16.50;;;;;;;;;;4382130;32;20364;-58
2020/12/21 05:40:31;;;;;;;26.30;17.70;;;;;;;;;;4380390;32;20252;-58
2020/12/21 05:42:57;;;;;;;28.13;19.00;;;;;;;;;;4382214;32;20724;-58
2020/12/21 05:45:22;;;;;;;29.20;19.83;;;;;;;;;;4379778;32;20611;-58
2020/12/21 05:47:49;;;;;;;31.60;21.17;;;;;;;;;;4380845;32;20288;-58
2020/12/21 05:50:21;;;;;;;31.10;20.73;;;;;;;;;;4378042;32;20611;-58
2020/12/21 05:52:53;;;;;;;41.87;25.43;;;;;;;;;;4382809;32;20206;-58
2020/12/21 05:55:20;;;;;;;33.90;20.77;;;;;;;;;;4379376;32;20311;-57
2020/12/21 05:57:47;;;;;;;37.57;22.30;;;;;;;;;;4381138;32;20432;-59
2020/12/21 06:00:14;;;;;;;37.40;24.77;;;;;;;;;;4379049;32;20708;-59
2020/12/21 06:02:40;;;;;;;23.20;16.30;;;;;;;;;;4381254;32;20215;-60
2020/12/21 06:05:07;;;;;;;26.87;18.17;;;;;;;;;;4378655;32;20630;-59
2020/12/21 06:07:34;;;;;;;34.57;19.40;;;;;;;;;;4382155;32;20575;-60
2020/12/21 06:10:04;;;;;;;23.80;16.63;;;;;;;;;;4378912;32;20230;-59
2020/12/21 06:12:35;;;;;;;26.57;17.63;;;;;;;;;;4380917;32;20240;-59
2020/12/21 06:15:09;;;;;;;38.00;17.43;;;;;;;;;;4380209;32;20785;-59
2020/12/21 06:17:36;;;;;;;17.53;12.50;;;;;;;;;;4381715;32;20305;-59
2020/12/21 06:20:08;;;;;;;29.23;18.97;;;;;;;;;;4379000;32;20356;-59
2020/12/21 06:22:35;;;;;;;34.10;21.13;;;;;;;;;;4381015;32;20245;-59
2020/12/21 06:25:01;;;;;;;40.00;24.33;;;;;;;;;;4380431;32;20573;-57
2020/12/21 06:27:40;;;;;;;39.47;23.10;;;;;;;;;;4378959;32;20359;-59
2020/12/21 06:30:10;;;;;;;40.27;23.20;;;;;;;;;;4375350;32;20240;-58
2020/12/21 06:32:36;;;;;;;39.63;23.07;;;;;;;;;;4380122;32;20628;-58
2020/12/21 06:35:16;;;;;;;38.30;23.03;;;;;;;;;;4379590;32;20318;-58
2020/12/21 06:37:53;;;;;;;43.07;26.03;;;;;;;;;;4380144;32;20213;-58
2020/12/21 06:40:29;;;;;;;48.27;24.53;;;;;;;;;;4376821;32;20849;-58
2020/12/21 06:42:55;;;;;;;39.50;23.20;;;;;;;;;;4378151;32;20213;-58
2020/12/21 06:45:20;;;;;;;54.57;33.57;;;;;;;;;;4377600;32;20218;-58
2020/12/21 06:47:45;;;;;;;47.13;30.33;;;;;;;;;;4379036;32;20741;-58
2020/12/21 06:50:11;;;;;;;46.53;28.50;;;;;;;;;;4376009;32;20350;-62
2020/12/21 06:52:40;;;;;;;35.97;22.77;;;;;;;;;;4375446;32;20748;-58
2020/12/21 06:55:05;;;;;;;36.30;23.67;;;;;;;;;;4371838;32;20230;-58
2020/12/21 06:57:31;;;;;;;34.50;20.13;;;;;;;;;;4379257;32;20275;-58
2020/12/21 06:59:59;;;;;;;28.27;19.10;;;;;;;;;;4378127;32;20430;-60
2020/12/21 07:02:25;;;;;;;34.40;23.57;;;;;;;;;;4381125;32;20257;-58
2020/12/21 07:04:50;;;;;;;34.70;24.03;;;;;;;;;;4379166;32;20382;-58
2020/12/21 07:07:17;;;;;;;35.97;25.40;;;;;;;;;;4377488;32;20252;-59
2020/12/21 07:09:42;;;;;;;43.30;26.63;;;;;;;;;;4374912;32;20295;-58
2020/12/21 07:12:08;;;;;;;57.43;38.53;;;;;;;;;;4379175;32;20644;-58
2020/12/21 07:14:35;;;;;;;51.23;35.27;;;;;;;;;;4378893;32;20269;-58
2020/12/21 07:17:05;;;;;;;46.20;32.53;;;;;;;;;;4377478;32;20203;-58
2020/12/21 07:19:32;;;;;;;39.90;26.83;;;;;;;;;;4368904;32;20210;-65
2020/12/21 07:21:58;;;;;;;39.23;27.23;;;;;;;;;;4376579;32;20230;-61
2020/12/21 07:24:23;;;;;;;40.67;24.87;;;;;;;;;;4377194;32;20336;-61
2020/12/21 07:26:51;;;;;;;42.70;26.97;;;;;;;;;;4377951;32;20335;-62
2020/12/21 07:29:16;;;;;;;43.17;26.67;;;;;;;;;;4377250;32;20301;-61
2020/12/21 07:31:43;;;;;;;28.83;22.03;;;;;;;;;;4378318;32;20301;-60
2020/12/21 07:34:08;;;;;;;36.87;22.80;;;;;;;;;;4377438;32;20323;-60
2020/12/21 07:36:34;;;;;;;42.57;26.77;;;;;;;;;;4371259;32;20320;-60
2020/12/21 07:39:19;;;;;;;78.80;45.03;;;;;;;;;;4381297;32;20236;-59
2020/12/21 07:41:54;;;;;;;38.30;24.57;;;;;;;;;;4377445;32;20247;-60
2020/12/21 07:44:20;;;;;;;44.13;24.37;;;;;;;;;;4379635;32;20713;-59
2020/12/21 07:46:54;;;;;;;33.23;21.77;;;;;;;;;;4377354;32;20355;-60
2020/12/21 07:49:21;;;;;;;26.60;17.20;;;;;;;;;;4378031;32;20233;-59
2020/12/21 07:51:47;;;;;;;23.43;17.40;;;;;;;;;;4377453;32;20232;-59
2020/12/21 07:54:13;;;;;;;29.43;17.87;;;;;;;;;;4378770;32;20362;-59
2020/12/21 07:56:39;;;;;;;34.67;21.60;;;;;;;;;;4377922;32;20281;-60
2020/12/21 07:59:15;;;;;;;30.77;19.30;;;;;;;;;;4379978;32;20327;-60
2020/12/21 08:01:41;;;;;;;27.03;19.87;;;;;;;;;;4379137;32;20248;-59
2020/12/21 08:04:15;;;;;;;34.00;20.07;;;;;;;;;;4377673;32;20272;-59
2020/12/21 08:06:41;;;;;;;21.27;15.80;;;;;;;;;;4377968;32;20252;-59
2020/12/21 08:09:08;;;;;;;31.70;19.57;;;;;;;;;;4363765;32;20245;-59
2020/12/21 08:11:35;;;;;;;40.00;25.47;;;;;;;;;;4381695;32;20631;-59
2020/12/21 08:14:01;;;;;;;39.47;25.63;;;;;;;;;;4379410;32;20320;-60
2020/12/21 08:16:27;;;;;;;38.73;27.00;;;;;;;;;;4380969;32;20305;-60
2020/12/21 08:18:52;;;;;;;41.07;28.60;;;;;;;;;;4376953;32;20624;-60
2020/12/21 08:21:23;;;;;;;48.87;31.90;;;;;;;;;;4377628;32;20320;-59
2020/12/21 08:23:56;;;;;;;44.47;29.33;;;;;;;;;;4377767;32;20330;-60
2020/12/21 08:26:23;;;;;;;30.97;20.63;;;;;;;;;;4377408;32;20407;-59
2020/12/21 08:28:49;;;;;;;35.10;22.73;;;;;;;;;;4377628;32;20701;-59
2020/12/21 08:31:20;;;;;;;46.50;27.53;;;;;;;;;;4378344;32;20309;-59
2020/12/21 08:33:59;;;;;;;44.77;25.17;;;;;;;;;;4375793;32;20268;-59
2020/12/21 08:36:34;;;;;;;30.07;21.00;;;;;;;;;;4378577;32;20307;-58
2020/12/21 08:39:13;;;;;;;37.20;20.90;;;;;;;;;;4371680;32;20693;-60
2020/12/21 08:41:44;;;;;;;54.13;35.43;;;;;;;;;;4376222;32;20398;-60
2020/12/21 08:44:17;;;;;;;35.80;23.80;;;;;;;;;;4375382;32;20324;-60
2020/12/21 08:46:46;;;;;;;29.63;18.87;;;;;;;;;;4373227;32;20222;-59
2020/12/21 08:49:12;;;;;;;33.33;19.23;;;;;;;;;;4377529;32;20309;-60
2020/12/21 08:51:38;;;;;;;29.17;17.63;;;;;;;;;;4379307;32;20721;-61
2020/12/21 08:54:03;;;;;;;25.43;18.43;;;;;;;;;;4379181;32;20332;-61
2020/12/21 08:56:28;;;;;;;30.27;22.43;;;;;;;;;;4379539;32;20330;-61
2020/12/21 08:58:54;;;;;;;28.33;18.83;;;;;;;;;;4379413;32;20301;-61
2020/12/21 09:01:19;;;;;;;25.73;18.57;;;;;;;;;;4380473;32;20272;-60
2020/12/21 09:03:46;;;;;;;28.33;17.70;;;;;;;;;;4358389;32;20392;-60
2020/12/21 09:06:19;;;;;;;34.67;18.20;;;;;;;;;;4378771;32;20371;-59
2020/12/21 09:08:45;;;;;;;26.50;17.53;;;;;;;;;;4380267;32;20209;-59
2020/12/21 09:11:11;;;;;;;23.87;16.60;;;;;;;;;;4378043;32;20680;-59
2020/12/21 09:13:40;;;;;;;22.83;15.97;;;;;;;;;;4379693;32;20260;-59
2020/12/21 09:16:05;;;;;;;21.93;15.70;;;;;;;;;;4379599;32;20308;-59
2020/12/21 09:18:31;;;;;;;24.33;16.30;;;;;;;;;;4374794;32;20484;-61
2020/12/21 09:20:56;;;;;;;28.43;17.27;;;;;;;;;;4374878;32;20245;-61
2020/12/21 09:23:22;;;;;;;21.90;13.47;;;;;;;;;;4376304;32;20364;-61
2020/12/21 09:25:47;;;;;;;16.50;12.17;;;;;;;;;;4376215;32;20257;-61
2020/12/21 09:28:13;;;;;;;20.83;13.17;;;;;;;;;;4370567;32;20345;-61
2020/12/21 09:30:38;;;;;;;19.90;12.77;;;;;;;;;;4371309;32;20281;-62
2020/12/21 09:33:03;;;;;;;27.63;15.27;;;;;;;;;;4371920;32;20345;-61
2020/12/21 09:35:29;;;;;;;28.27;17.53;;;;;;;;;;4381195;32;20690;-61
2020/12/21 09:37:54;;;;;;;28.60;17.03;;;;;;;;;;4381237;32;20666;-61
2020/12/21 09:40:20;;;;;;;22.63;16.80;;;;;;;;;;4372696;32;20548;-61
2020/12/21 09:42:46;;;;;;;28.83;19.17;;;;;;;;;;4377201;32;20365;-61
2020/12/21 09:45:11;;;;;;;28.23;15.80;;;;;;;;;;4381800;32;20229;-62
2020/12/21 09:47:37;;;;;;;56.50;31.63;;;;;;;;;;4371419;32;20304;-62
2020/12/21 09:50:03;;;;;;;39.43;24.23;;;;;;;;;;4380378;32;20297;-62
2020/12/21 09:52:28;;;;;;;19.87;14.43;;;;;;;;;;4377023;32;20297;-63
2020/12/21 09:54:55;;;;;;;20.27;15.47;;;;;;;;;;4380264;32;20253;-62
2020/12/21 09:57:20;;;;;;;23.73;15.33;;;;;;;;;;4378718;32;20218;-62
2020/12/21 09:59:46;;;;;;;28.23;21.10;;;;;;;;;;4376511;32;20252;-63
2020/12/21 10:02:11;;;;;;;26.40;19.03;;;;;;;;;;4378959;32;20213;-62
2020/12/21 10:04:37;;;;;;;37.80;21.33;;;;;;;;;;4374552;32;20273;-62
2020/12/21 10:07:02;;;;;;;28.67;21.03;;;;;;;;;;4375673;32;20206;-62
2020/12/21 10:09:28;;;;;;;24.17;18.73;;;;;;;;;;4386581;32;20315;-61
2020/12/21 10:11:54;;;;;;;24.07;19.10;;;;;;;;;;4382600;32;20297;-61
2020/12/21 10:14:19;;;;;;;35.33;22.13;;;;;;;;;;4380811;32;20293;-62
2020/12/21 10:16:44;;;;;;;40.33;27.03;;;;;;;;;;4377949;32;20218;-62
2020/12/21 10:19:10;;;;;;;32.83;23.20;;;;;;;;;;4384347;32;20655;-61
2020/12/21 10:21:36;;;;;;;47.47;33.80;;;;;;;;;;4376571;32;20253;-62
2020/12/21 10:24:01;;;;;;;37.30;25.00;;;;;;;;;;4385014;32;20255;-61
2020/12/21 10:26:27;;;;;;;41.67;26.70;;;;;;;;;;4378258;32;20237;-62
2020/12/21 10:28:52;;;;;;;35.67;24.90;;;;;;;;;;4384457;32;20289;-63
2020/12/21 10:31:18;;;;;;;28.93;21.37;;;;;;;;;;4374734;32;20245;-62
2020/12/21 10:33:43;;;;;;;63.10;42.40;;;;;;;;;;4383471;32;20342;-62
2020/12/21 10:36:14;;;;;;;47.50;30.57;;;;;;;;;;4378433;32;20388;-62
2020/12/21 10:38:40;;;;;;;36.03;27.27;;;;;;;;;;4382868;32;20279;-62
2020/12/21 10:41:06;;;;;;;34.90;26.53;;;;;;;;;;4384777;32;20303;-62
2020/12/21 10:43:31;;;;;;;45.90;30.93;;;;;;;;;;4375781;32;20372;-62
2020/12/21 10:45:57;;;;;;;42.70;30.07;;;;;;;;;;4380853;32;20587;-63
2020/12/21 10:48:22;;;;;;;41.73;28.90;;;;;;;;;;4374857;32;20281;-63
2020/12/21 10:50:48;;;;;;;48.00;31.93;;;;;;;;;;4383496;32;20288;-63
2020/12/21 10:53:13;;;;;;;40.30;27.33;;;;;;;;;;4374771;32;20382;-62
2020/12/21 10:55:39;;;;;;;33.90;24.10;;;;;;;;;;4382522;32;20769;-63
2020/12/21 10:58:04;;;;;;;35.37;24.23;;;;;;;;;;4378330;32;20285;-63
2020/12/21 11:00:30;;;;;;;38.23;26.23;;;;;;;;;;4377623;32;20726;-62
2020/12/21 11:02:55;;;;;;;38.00;25.87;;;;;;;;;;4363146;32;20317;-62
2020/12/21 11:05:21;;;;;;;42.87;28.73;;;;;;;;;;4376819;32;20987;-64
2020/12/21 11:07:46;;;;;;;46.50;31.50;;;;;;;;;;4381630;32;20289;-63
2020/12/21 11:10:12;;;;;;;47.13;30.90;;;;;;;;;;4373064;32;20306;-62
2020/12/21 11:12:38;;;;;;;43.53;27.80;;;;;;;;;;4381600;32;20279;-58
2020/12/21 11:15:04;;;;;;;43.33;28.27;;;;;;;;;;4372887;32;20725;-58
2020/12/21 11:17:30;;;;;;;45.17;29.07;;;;;;;;;;4371880;32;20288;-58
2020/12/21 11:19:55;;;;;;;47.33;28.37;;;;;;;;;;4385346;32;20302;-58
2020/12/21 11:22:21;;;;;;;53.60;32.20;;;;;;;;;;4378806;32;20222;-58
2020/12/21 11:24:46;;;;;;;57.17;36.40;;;;;;;;;;4383548;32;20217;-58
2020/12/21 11:27:11;;;;;;;59.07;37.47;;;;;;;;;;4374125;32;20381;-58
2020/12/21 11:29:37;;;;;;;63.20;37.73;;;;;;;;;;4382340;32;20278;-58
2020/12/21 11:32:02;;;;;;;57.93;35.50;;;;;;;;;;4376510;32;20355;-58
2020/12/21 11:34:28;;;;;;;58.47;32.50;;;;;;;;;;4376910;32;20774;-58
2020/12/21 11:36:53;;;;;;;263.13;100.93;;;;;;;;;;4371310;32;20340;-58
2020/12/21 11:39:19;;;;;;;379.03;151.97;;;;;;;;;;4376610;32;20808;-58
2020/12/21 11:41:44;;;;;;;236.43;102.20;;;;;;;;;;4384295;32;20217;-58
2020/12/21 11:44:09;;;;;;;61.77;36.10;;;;;;;;;;4380084;32;20281;-58
2020/12/21 11:46:38;;;;;;;53.63;33.63;;;;;;;;;;4379708;32;20279;-58
2020/12/21 11:49:04;;;;;;;84.80;45.80;;;;;;;;;;4375713;32;20359;-58
2020/12/21 11:51:29;;;;;;;101.90;48.90;;;;;;;;;;4374416;32;20320;-58
2020/12/21 11:53:55;;;;;;;45.30;29.60;;;;;;;;;;4381331;32;20750;-58
2020/12/21 11:56:21;;;;;;;46.97;28.37;;;;;;;;;;4374050;32;20559;-58
2020/12/21 11:58:47;;;;;;;39.63;29.03;;;;;;;;;;4381835;32;20357;-59
2020/12/21 12:01:12;;;;;;;52.87;39.70;;;;;;;;;;4374324;32;20309;-58
2020/12/21 12:03:38;;;;;;;39.57;24.97;;;;;;;;;;4366906;32;20695;-57
2020/12/21 12:06:03;;;;;;;35.63;21.90;;;;;;;;;;4380171;32;20303;-58
2020/12/21 12:08:29;;;;;;;41.97;27.97;;;;;;;;;;4377189;32;20364;-58
2020/12/21 12:10:54;;;;;;;58.23;38.63;;;;;;;;;;4374231;32;20634;-58
2020/12/21 12:13:20;;;;;;;66.87;42.50;;;;;;;;;;4387098;32;20336;-58
2020/12/21 12:15:45;;;;;;;64.53;40.10;;;;;;;;;;4378980;32;20241;-58
2020/12/21 12:18:10;;;;;;;65.63;41.77;;;;;;;;;;4382416;32;20249;-58
2020/12/21 12:20:36;;;;;;;51.50;34.70;;;;;;;;;;4373876;32;20229;-58
2020/12/21 12:23:02;;;;;;;44.80;32.17;;;;;;;;;;4380447;32;20241;-58
2020/12/21 12:25:27;;;;;;;45.40;32.23;;;;;;;;;;4364855;32;20307;-58
2020/12/21 12:27:52;;;;;;;47.40;33.93;;;;;;;;;;4370922;32;20316;-57
2020/12/21 12:30:18;;;;;;;55.10;32.17;;;;;;;;;;4376883;32;21050;-57
2020/12/21 12:32:43;;;;;;;51.23;30.83;;;;;;;;;;4375190;32;20276;-58
2020/12/21 12:35:09;;;;;;;58.53;38.33;;;;;;;;;;4372750;32;20427;-58
2020/12/21 12:37:34;;;;;;;59.80;40.07;;;;;;;;;;4382340;32;20374;-57
2020/12/21 12:39:59;;;;;;;47.10;35.53;;;;;;;;;;4381776;32;20225;-57
2020/12/21 12:42:26;;;;;;;56.23;38.73;;;;;;;;;;4378192;32;20286;-57
2020/12/21 12:44:51;;;;;;;65.83;43.77;;;;;;;;;;4377689;32;20230;-57
2020/12/21 12:47:17;;;;;;;91.03;57.63;;;;;;;;;;4375358;32;20287;-57
2020/12/21 12:49:42;;;;;;;59.23;39.60;;;;;;;;;;4381296;32;20302;-57
2020/12/21 12:52:08;;;;;;;53.53;36.40;;;;;;;;;;4368521;32;20341;-57
2020/12/21 12:54:33;;;;;;;66.33;41.77;;;;;;;;;;4382967;32;21123;-58
2020/12/21 12:56:59;;;;;;;74.67;50.10;;;;;;;;;;4383406;32;20395;-58
2020/12/21 12:59:25;;;;;;;73.80;48.83;;;;;;;;;;4380823;32;20323;-57
2020/12/21 13:01:50;;;;;;;56.73;41.80;;;;;;;;;;4380874;32;20237;-58
2020/12/21 13:04:15;;;;;;;92.13;57.60;;;;;;;;;;4381665;32;20241;-57
2020/12/21 13:06:41;;;;;;;100.43;60.17;;;;;;;;;;4373187;32;21288;-58
2020/12/21 13:09:06;;;;;;;71.33;47.60;;;;;;;;;;4377910;32;20348;-58
2020/12/21 13:11:32;;;;;;;92.50;62.10;;;;;;;;;;4368735;32;20280;-58
2020/12/21 13:13:57;;;;;;;90.53;60.33;;;;;;;;;;4375260;32;20312;-57
2020/12/21 13:16:22;;;;;;;68.50;45.77;;;;;;;;;;4373298;32;20678;-58
2020/12/21 13:18:48;;;;;;;62.97;43.07;;;;;;;;;;4377453;32;20328;-58
2020/12/21 13:21:20;;;;;;;67.10;47.47;;;;;;;;;;4376089;32;20376;-58
2020/12/21 13:23:47;;;;;;;134.00;72.27;;;;;;;;;;4377623;32;20233;-59
2020/12/21 13:26:19;;;;;;;97.93;55.77;;;;;;;;;;4379940;32;20226;-57
2020/12/21 13:28:48;;;;;;;79.63;49.80;;;;;;;;;;4383117;32;20229;-58
2020/12/21 13:31:15;;;;;;;54.10;36.47;;;;;;;;;;4362855;32;20569;-58
2020/12/21 13:33:41;;;;;;;57.17;37.83;;;;;;;;;;4377220;32;20689;-58
2020/12/21 13:36:08;;;;;;;69.40;44.83;;;;;;;;;;4385699;32;20285;-57
2020/12/21 13:38:38;;;;;;;152.23;87.60;;;;;;;;;;4378787;32;20298;-59
2020/12/21 13:41:05;;;;;;;63.27;40.27;;;;;;;;;;4381190;32;20230;-58
2020/12/21 13:43:30;;;;;;;73.40;45.83;;;;;;;;;;4380937;32;20240;-59
2020/12/21 13:45:56;;;;;;;87.83;56.17;;;;;;;;;;4378333;32;20277;-59
2020/12/21 13:48:21;;;;;;;56.33;36.87;;;;;;;;;;4387515;32;20280;-58
2020/12/21 13:50:47;;;;;;;85.70;56.57;;;;;;;;;;4376152;32;20242;-58
2020/12/21 13:53:12;;;;;;;51.87;35.47;;;;;;;;;;4385414;32;20313;-58
2020/12/21 13:55:37;;;;;;;57.37;37.17;;;;;;;;;;4376746;32;20230;-58
2020/12/21 13:58:03;;;;;;;47.70;31.23;;;;;;;;;;4381838;32;20297;-58
2020/12/21 14:00:28;;;;;;;53.87;33.93;;;;;;;;;;4373772;32;20815;-58
2020/12/21 14:02:54;;;;;;;48.00;28.20;;;;;;;;;;4384868;32;20722;-58
2020/12/21 14:05:19;;;;;;;47.63;28.10;;;;;;;;;;4381468;32;20380;-58
2020/12/21 14:07:44;;;;;;;48.27;33.00;;;;;;;;;;4378416;32;20335;-59
2020/12/21 14:10:10;;;;;;;63.90;41.13;;;;;;;;;;4379632;32;20312;-59
2020/12/21 14:12:37;;;;;;;95.47;59.27;;;;;;;;;;4382400;32;20732;-59